Terminal Aerodrome Forecast
Issued by NWS

Home | Current Version | Previous Version | Text Only | Print | Product List | Glossary On
Versions: 1 2 3 4 5 6 7 8 9 10 11 12 13 14 15 16 17 18 19 20
000
FTUS43 KOAX 181700
TAFSNY
TAF
KSNY 181726Z 1818/1918 20012KT P6SM SCT250
     FM181900 18021G33KT P6SM OVC250
     FM190200 19014G20KT P6SM BKN100
     FM191000 33011KT P6SM SCT070 OVC200=

USA.gov is the U.S. government's official web portal to all federal, state and local government web resources and services.